createdAt,value
2023-05-22T00:00:21.262Z,0
2023-05-22T00:02:46.375Z,0
2023-05-22T00:05:12.444Z,0
2023-05-22T00:07:38.541Z,0
2023-05-22T00:10:04.652Z,0
2023-05-22T00:12:30.766Z,0
2023-05-22T00:14:56.848Z,0
2023-05-22T00:17:22.927Z,0
2023-05-22T00:19:49.073Z,0
2023-05-22T00:22:15.122Z,0
2023-05-22T00:24:41.226Z,0
2023-05-22T00:27:07.349Z,0
2023-05-22T00:29:33.484Z,0
2023-05-22T00:31:59.511Z,0
2023-05-22T00:34:24.617Z,0
2023-05-22T00:36:50.729Z,0
2023-05-22T00:39:16.829Z,0
2023-05-22T00:41:42.932Z,0
2023-05-22T00:44:09.053Z,0
2023-05-22T00:46:35.100Z,0
2023-05-22T00:49:01.195Z,0
2023-05-22T00:51:27.289Z,0
2023-05-22T00:53:53.384Z,0
2023-05-22T00:56:19.482Z,0
2023-05-22T00:58:45.632Z,0
2023-05-22T01:01:11.673Z,0
2023-05-22T01:03:37.769Z,0
2023-05-22T01:06:02.891Z,0
2023-05-22T01:08:28.965Z,0
2023-05-22T01:10:55.081Z,0
2023-05-22T01:13:21.175Z,0
2023-05-22T01:15:47.270Z,0
2023-05-22T01:18:13.347Z,0
2023-05-22T01:20:39.454Z,0
2023-05-22T01:23:05.541Z,0
2023-05-22T01:25:31.675Z,0
2023-05-22T01:27:57.730Z,0
2023-05-22T01:30:23.812Z,0
2023-05-22T01:32:49.959Z,0
2023-05-22T01:35:16.055Z,0
2023-05-22T01:37:41.137Z,0
2023-05-22T01:40:07.233Z,0
2023-05-22T01:42:33.317Z,0
2023-05-22T01:44:59.430Z,0
2023-05-22T01:47:25.506Z,0
2023-05-22T01:49:51.613Z,0
2023-05-22T01:52:17.712Z,0
2023-05-22T01:54:43.793Z,0
2023-05-22T01:57:09.914Z,0
2023-05-22T01:59:35.982Z,0
2023-05-22T02:02:02.089Z,0
2023-05-22T02:04:28.193Z,0
2023-05-22T02:06:54.277Z,0
2023-05-22T02:09:19.390Z,0
2023-05-22T02:11:45.485Z,0
2023-05-22T02:14:11.586Z,0
2023-05-22T02:16:37.667Z,0
2023-05-22T02:19:03.760Z,0
2023-05-22T02:21:29.864Z,0
2023-05-22T02:23:55.964Z,0
2023-05-22T02:26:22.075Z,0
2023-05-22T02:28:48.155Z,0
2023-05-22T02:31:14.235Z,0
2023-05-22T02:33:40.326Z,0
2023-05-22T02:36:06.431Z,0
2023-05-22T02:38:32.550Z,0
2023-05-22T02:40:57.633Z,0
2023-05-22T02:43:23.723Z,0
2023-05-22T02:45:49.812Z,0
2023-05-22T02:48:15.928Z,0
2023-05-22T02:50:42.041Z,0
2023-05-22T02:53:08.098Z,0
2023-05-22T02:55:33.223Z,0
2023-05-22T02:57:59.321Z,0
2023-05-22T03:00:25.399Z,4
2023-05-22T03:02:51.526Z,0
2023-05-22T03:05:17.630Z,4
2023-05-22T03:07:43.713Z,8
2023-05-22T03:10:09.802Z,8
2023-05-22T03:12:35.888Z,12
2023-05-22T03:15:01.985Z,20
2023-05-22T03:17:28.079Z,28
2023-05-22T03:19:54.179Z,36
2023-05-22T03:22:20.277Z,48
2023-05-22T03:24:46.359Z,56
2023-05-22T03:27:11.478Z,68
2023-05-22T03:29:37.574Z,88
2023-05-22T03:32:03.662Z,112
2023-05-22T03:34:29.767Z,140
2023-05-22T03:36:55.851Z,172
2023-05-22T03:39:21.955Z,216
2023-05-22T03:41:48.032Z,277
2023-05-22T03:44:14.131Z,337
2023-05-22T03:46:40.238Z,405
2023-05-22T03:49:06.334Z,481
2023-05-22T03:51:32.430Z,562
2023-05-22T03:53:58.506Z,634
2023-05-22T03:56:24.606Z,710
2023-05-22T03:58:49.713Z,791
2023-05-22T04:01:15.816Z,871
2023-05-22T04:03:41.906Z,943
2023-05-22T04:06:07.993Z,1024
2023-05-22T04:08:34.092Z,1104
2023-05-22T04:11:00.181Z,1192
2023-05-22T04:13:26.285Z,1289
2023-05-22T04:15:52.379Z,1381
2023-05-22T04:18:18.491Z,1501
2023-05-22T04:20:44.602Z,1618
2023-05-22T04:23:10.662Z,1754
2023-05-22T04:25:36.752Z,1907
2023-05-22T04:28:02.854Z,2060
2023-05-22T04:30:27.969Z,2208
2023-05-22T04:35:20.165Z,2361
2023-05-22T04:37:46.262Z,2401
2023-05-22T04:40:12.346Z,2429
2023-05-22T04:42:38.503Z,2477
2023-05-22T04:45:04.580Z,2489
2023-05-22T04:47:30.629Z,2537
2023-05-22T04:49:56.729Z,2646
2023-05-22T04:52:22.820Z,2738
2023-05-22T04:54:48.918Z,2887
2023-05-22T04:59:41.104Z,3120
2023-05-22T05:02:06.260Z,3288
2023-05-22T05:04:32.308Z,3353
2023-05-22T05:06:58.403Z,3405
2023-05-22T05:09:24.499Z,3453
2023-05-22T05:11:50.605Z,3509
2023-05-22T05:14:16.720Z,3565
2023-05-22T05:16:42.781Z,3618
2023-05-22T05:19:08.879Z,3666
2023-05-22T05:21:35.000Z,3706
2023-05-22T05:24:01.068Z,3750
2023-05-22T05:26:27.165Z,3786
2023-05-22T05:28:53.263Z,3818
2023-05-22T05:31:19.423Z,3847
2023-05-22T05:33:45.435Z,3883
2023-05-22T05:36:11.549Z,3919
2023-05-22T05:38:36.652Z,3955
2023-05-22T05:41:02.815Z,3991
2023-05-22T05:43:28.918Z,4027
2023-05-22T05:45:54.942Z,4063
2023-05-22T05:48:21.031Z,4100
2023-05-22T05:50:47.149Z,4124
2023-05-22T05:53:13.221Z,4148
2023-05-22T05:55:39.319Z,4184
2023-05-22T05:58:05.423Z,4228
2023-05-22T06:00:31.502Z,4264
2023-05-22T06:02:57.632Z,4292
2023-05-22T06:05:23.723Z,4320
2023-05-22T06:07:49.889Z,4344
2023-05-22T06:10:14.977Z,4393
2023-05-22T06:12:41.137Z,4413
2023-05-22T06:15:07.117Z,4441
2023-05-22T06:17:33.189Z,4497
2023-05-22T06:19:59.287Z,4453
2023-05-22T06:22:25.398Z,4481
2023-05-22T06:24:51.478Z,4573
2023-05-22T06:27:17.581Z,4569
2023-05-22T06:29:43.671Z,4565
2023-05-22T06:32:09.774Z,4618
2023-05-22T06:34:35.888Z,4706
2023-05-22T06:37:01.965Z,4846
2023-05-22T06:39:28.269Z,4975
2023-05-22T06:41:54.199Z,5075
2023-05-22T06:44:20.383Z,5272
2023-05-22T06:46:46.345Z,5421
2023-05-22T06:49:12.435Z,5533
2023-05-22T06:51:38.654Z,5561
2023-05-22T06:54:04.812Z,5513
2023-05-22T06:56:30.759Z,5421
2023-05-22T06:58:56.840Z,5296
2023-05-22T07:01:22.911Z,5838
2023-05-22T07:03:48.995Z,6344
2023-05-22T07:06:15.085Z,6649
2023-05-22T07:08:40.234Z,6898
2023-05-22T07:11:06.301Z,7224
2023-05-22T07:13:32.393Z,7425
2023-05-22T07:15:58.479Z,7260
2023-05-22T07:18:24.598Z,6525
2023-05-22T07:20:50.675Z,6232
2023-05-22T07:23:16.870Z,6035
2023-05-22T07:25:42.922Z,5778
2023-05-22T07:28:09.015Z,6135
2023-05-22T07:30:35.046Z,6091
2023-05-22T07:33:01.163Z,5899
2023-05-22T07:35:27.316Z,5798
2023-05-22T07:37:53.558Z,5577
2023-05-22T07:40:19.608Z,5473
2023-05-22T07:42:45.566Z,5377
2023-05-22T07:45:11.656Z,5268
2023-05-22T07:47:37.920Z,5192
2023-05-22T07:50:03.960Z,5184
2023-05-22T07:52:29.918Z,5196
2023-05-22T07:54:56.196Z,5180
2023-05-22T07:57:22.252Z,5156
2023-05-22T07:59:48.192Z,5184
2023-05-22T08:02:14.281Z,5196
2023-05-22T08:04:40.385Z,5224
2023-05-22T08:07:06.458Z,5232
2023-05-22T08:09:32.567Z,5256
2023-05-22T08:11:58.657Z,5284
2023-05-22T08:14:24.914Z,5316
2023-05-22T08:16:50.842Z,5320
2023-05-22T08:19:15.971Z,5340
2023-05-22T08:21:42.203Z,5368
2023-05-22T08:24:08.157Z,5356
2023-05-22T08:26:34.376Z,5429
2023-05-22T08:29:00.357Z,5465
2023-05-22T08:31:26.555Z,5485
2023-05-22T08:33:52.713Z,5509
2023-05-22T08:36:18.747Z,5521
2023-05-22T08:38:44.745Z,5569
2023-05-22T08:41:10.955Z,5581
2023-05-22T08:43:36.984Z,5625
2023-05-22T08:46:02.996Z,5642
2023-05-22T08:48:29.103Z,5674
2023-05-22T08:50:54.207Z,5718
2023-05-22T08:53:20.430Z,5786
2023-05-22T08:55:46.396Z,5834
2023-05-22T08:58:12.479Z,5878
2023-05-22T09:00:38.590Z,5939
2023-05-22T09:03:04.673Z,5987
2023-05-22T09:05:30.788Z,6071
2023-05-22T09:07:56.948Z,6300
2023-05-22T09:10:23.050Z,6156
2023-05-22T09:12:49.230Z,6208
2023-05-22T09:15:15.353Z,6268
2023-05-22T09:17:41.416Z,6336
2023-05-22T09:20:07.331Z,6477
2023-05-22T09:22:32.454Z,6473
2023-05-22T09:24:58.948Z,6445
2023-05-22T09:27:24.648Z,6348
2023-05-22T09:29:50.799Z,6401
2023-05-22T09:32:16.957Z,6453
2023-05-22T09:34:42.937Z,6469
2023-05-22T09:37:09.188Z,6493
2023-05-22T09:39:35.286Z,6501
2023-05-22T09:42:01.406Z,6557
2023-05-22T09:44:27.323Z,6670
2023-05-22T09:46:53.564Z,6714
2023-05-22T09:49:19.605Z,6714
2023-05-22T09:51:45.586Z,6822
2023-05-22T09:54:10.868Z,6906
2023-05-22T09:56:36.821Z,7011
2023-05-22T09:59:02.890Z,7079
2023-05-22T10:01:28.992Z,7067
2023-05-22T10:03:55.124Z,7224
2023-05-22T10:06:21.216Z,7260
2023-05-22T10:08:47.283Z,7368
2023-05-22T10:11:13.377Z,7437
2023-05-22T10:13:39.489Z,7477
2023-05-22T10:16:05.538Z,7569
2023-05-22T10:18:31.697Z,7645
2023-05-22T10:20:57.746Z,7786
2023-05-22T10:23:23.878Z,7918
2023-05-22T10:25:48.949Z,8035
2023-05-22T10:28:15.051Z,8075
2023-05-22T10:30:41.168Z,8147
2023-05-22T10:33:07.256Z,8224
2023-05-22T10:35:33.328Z,8324
2023-05-22T10:37:59.481Z,8449
2023-05-22T10:40:25.557Z,8557
2023-05-22T10:42:51.784Z,8657
2023-05-22T10:45:17.809Z,8701
2023-05-22T10:47:43.801Z,8894
2023-05-22T10:50:09.945Z,8894
2023-05-22T10:52:36.061Z,8983
2023-05-22T10:55:02.077Z,8926
2023-05-22T10:57:27.331Z,9007
2023-05-22T10:59:53.296Z,9103
2023-05-22T11:02:19.444Z,9199
2023-05-22T11:04:44.507Z,9103
2023-05-22T11:07:10.777Z,9240
2023-05-22T11:09:36.701Z,9404
2023-05-22T11:12:02.968Z,9621
2023-05-22T11:14:29.062Z,9806
2023-05-22T11:16:55.136Z,9802
2023-05-22T11:19:21.230Z,10071
2023-05-22T11:21:47.269Z,10107
2023-05-22T11:24:13.443Z,10183
2023-05-22T11:26:39.364Z,10280
2023-05-22T11:29:05.443Z,10533
2023-05-22T11:31:31.567Z,10729
2023-05-22T11:33:57.648Z,10794
2023-05-22T11:36:22.786Z,11083
2023-05-22T11:38:48.857Z,11272
2023-05-22T11:41:14.942Z,11424
2023-05-22T11:43:41.027Z,11757
2023-05-22T11:46:07.147Z,12223
2023-05-22T11:48:33.223Z,71896
2023-05-22T11:50:59.333Z,88987
2023-05-22T11:53:25.405Z,48702
2023-05-22T11:55:51.536Z,29266
2023-05-22T11:58:17.604Z,74916
2023-05-22T12:00:43.704Z,15010
2023-05-22T12:03:09.796Z,16404
2023-05-22T12:05:35.881Z,108455
2023-05-22T12:08:01.004Z,93806
2023-05-22T12:10:27.092Z,102962
2023-05-22T12:12:53.208Z,9605
2023-05-22T12:15:19.292Z,102865
2023-05-22T12:17:45.378Z,102351
2023-05-22T12:20:11.497Z,100006
2023-05-22T12:22:37.557Z,99524
2023-05-22T12:25:03.660Z,13368
2023-05-22T12:27:29.754Z,90272
2023-05-22T12:29:55.856Z,100777
2023-05-22T12:32:21.961Z,107331
2023-05-22T12:34:48.066Z,94770
2023-05-22T12:37:14.169Z,95444
2023-05-22T12:39:39.255Z,99364
2023-05-22T12:42:05.376Z,42855
2023-05-22T12:44:31.457Z,17572
2023-05-22T12:46:57.545Z,18954
2023-05-22T12:49:23.634Z,69648
2023-05-22T12:51:49.739Z,95187
2023-05-22T12:54:15.835Z,101163
2023-05-22T12:56:41.925Z,97950
2023-05-22T12:59:08.016Z,94159
2023-05-22T13:01:34.118Z,88055
2023-05-22T13:04:00.207Z,82594
2023-05-22T13:06:26.319Z,85871
2023-05-22T13:08:52.394Z,87092
2023-05-22T13:11:17.515Z,90336
2023-05-22T13:13:43.619Z,80699
2023-05-22T13:16:09.751Z,84104
2023-05-22T13:18:35.820Z,84329
2023-05-22T13:21:01.889Z,86096
2023-05-22T13:23:28.026Z,97661
2023-05-22T13:25:54.104Z,87670
2023-05-22T13:28:20.205Z,95252
2023-05-22T13:30:46.288Z,88216
2023-05-22T13:33:12.470Z,91397
2023-05-22T13:35:38.496Z,85871
2023-05-22T13:38:04.588Z,73856
2023-05-22T13:40:30.678Z,65214
2023-05-22T13:42:55.788Z,83847
2023-05-22T13:45:21.893Z,73760
2023-05-22T13:47:47.983Z,68555
2023-05-22T13:50:14.107Z,79060
2023-05-22T13:55:06.269Z,90240
2023-05-22T13:57:32.371Z,86578
2023-05-22T13:59:58.469Z,88794
2023-05-22T14:02:24.566Z,87124
2023-05-22T14:04:50.676Z,83365
2023-05-22T14:07:16.768Z,87670
2023-05-22T14:09:42.860Z,80859
2023-05-22T14:12:08.961Z,82883
2023-05-22T14:14:34.075Z,74563
2023-05-22T14:17:00.198Z,69326
2023-05-22T14:19:26.244Z,72475
2023-05-22T14:21:52.360Z,78161
2023-05-22T14:24:18.468Z,82369
2023-05-22T14:26:44.552Z,73310
2023-05-22T14:29:10.654Z,77229
2023-05-22T14:31:36.759Z,26182
2023-05-22T14:34:02.833Z,87092
2023-05-22T14:36:28.945Z,83365
2023-05-22T14:38:55.072Z,47031
2023-05-22T14:41:21.121Z,35145
2023-05-22T14:43:47.237Z,68009
2023-05-22T14:46:12.347Z,74820
2023-05-22T14:48:38.442Z,22744
2023-05-22T14:51:04.550Z,50661
2023-05-22T14:53:30.634Z,35755
2023-05-22T14:55:56.743Z,31001
2023-05-22T14:58:22.834Z,31643
2023-05-22T15:00:48.918Z,23676
2023-05-22T15:03:15.033Z,18986
2023-05-22T15:05:41.126Z,16347
2023-05-22T15:08:07.222Z,17155
2023-05-22T15:10:33.310Z,16110
2023-05-22T15:12:59.417Z,16536
2023-05-22T15:15:25.535Z,15392
2023-05-22T15:17:50.612Z,14038
2023-05-22T15:20:16.715Z,13295
2023-05-22T15:22:42.861Z,12982
2023-05-22T15:25:08.900Z,12079
2023-05-22T15:27:35.025Z,11215
2023-05-22T15:30:01.120Z,10685
2023-05-22T15:32:27.190Z,10782
2023-05-22T15:34:53.276Z,11484
2023-05-22T15:37:19.377Z,10179
2023-05-22T15:39:45.485Z,9079
2023-05-22T15:42:11.575Z,8252
2023-05-22T15:44:37.762Z,6565
2023-05-22T15:47:03.773Z,13107
2023-05-22T15:49:28.869Z,4348
2023-05-22T15:51:54.968Z,4919
2023-05-22T15:54:21.065Z,6228
2023-05-22T15:56:47.173Z,7420
2023-05-22T15:59:13.270Z,8432
2023-05-22T16:01:39.344Z,19114
2023-05-22T16:04:05.456Z,23355
2023-05-22T16:06:31.542Z,21620
2023-05-22T16:08:57.638Z,22005
2023-05-22T16:11:23.742Z,21845
2023-05-22T16:13:49.818Z,21524
2023-05-22T16:16:15.916Z,21202
2023-05-22T16:18:42.012Z,21652
2023-05-22T16:21:08.108Z,20849
2023-05-22T16:23:34.209Z,21170
2023-05-22T16:26:00.306Z,19725
2023-05-22T16:28:26.383Z,24318
2023-05-22T16:30:51.513Z,20720
2023-05-22T16:33:17.591Z,26664
2023-05-22T16:35:43.708Z,31932
2023-05-22T16:38:09.780Z,29555
2023-05-22T16:40:35.894Z,17508
2023-05-22T16:43:02.009Z,16062
2023-05-22T16:45:28.107Z,14520
2023-05-22T16:47:54.169Z,19660
2023-05-22T16:50:20.254Z,10685
2023-05-22T16:52:46.364Z,11488
2023-05-22T16:55:12.458Z,15741
2023-05-22T16:57:38.563Z,13765
2023-05-22T17:00:04.655Z,8019
2023-05-22T17:02:30.729Z,12279
2023-05-22T17:04:55.847Z,11918
2023-05-22T17:07:21.986Z,7710
2023-05-22T17:09:48.030Z,5381
2023-05-22T17:12:14.133Z,6332
2023-05-22T17:14:40.255Z,6047
2023-05-22T17:17:06.328Z,4754
2023-05-22T17:19:32.434Z,4007
2023-05-22T17:21:58.511Z,3654
2023-05-22T17:24:24.646Z,3445
2023-05-22T17:26:50.701Z,3260
2023-05-22T17:29:16.817Z,3076
2023-05-22T17:31:42.903Z,2879
2023-05-22T17:34:08.988Z,2734
2023-05-22T17:36:34.130Z,2674
2023-05-22T17:39:00.194Z,2694
2023-05-22T17:41:26.284Z,2766
2023-05-22T17:43:52.395Z,2895
2023-05-22T17:46:18.501Z,3084
2023-05-22T17:48:44.644Z,3220
2023-05-22T17:51:10.674Z,3300
2023-05-22T17:53:36.789Z,3449
2023-05-22T17:56:03.021Z,3710
2023-05-22T17:58:28.954Z,3847
2023-05-22T18:00:55.053Z,3834
2023-05-22T18:03:21.164Z,3738
2023-05-22T18:05:47.239Z,3577
2023-05-22T18:08:12.353Z,3449
2023-05-22T18:10:38.450Z,3216
2023-05-22T18:13:04.545Z,3112
2023-05-22T18:15:30.680Z,2935
2023-05-22T18:17:56.728Z,2786
2023-05-22T18:20:22.818Z,2686
2023-05-22T18:22:48.918Z,2489
2023-05-22T18:25:15.021Z,2220
2023-05-22T18:27:41.108Z,1955
2023-05-22T18:30:07.234Z,1718
2023-05-22T18:32:33.298Z,1517
2023-05-22T18:34:59.408Z,1321
2023-05-22T18:37:25.553Z,1144
2023-05-22T18:39:51.583Z,1011
2023-05-22T18:42:17.680Z,891
2023-05-22T18:49:34.988Z,586
2023-05-22T18:52:01.091Z,461
2023-05-22T18:54:27.170Z,349
2023-05-22T18:56:53.252Z,273
2023-05-22T18:59:19.375Z,208
2023-05-22T19:01:45.453Z,164
2023-05-22T19:04:11.724Z,136
2023-05-22T19:06:37.693Z,108
2023-05-22T19:09:03.931Z,88
2023-05-22T19:11:29.985Z,72
2023-05-22T19:13:54.983Z,56
2023-05-22T19:16:21.124Z,44
2023-05-22T19:18:47.132Z,32
2023-05-22T19:21:13.254Z,24
2023-05-22T19:23:39.386Z,20
2023-05-22T19:26:05.439Z,12
2023-05-22T19:28:31.517Z,8
2023-05-22T19:30:57.604Z,4
2023-05-22T19:33:23.719Z,4
2023-05-22T19:35:49.829Z,4
2023-05-22T19:38:15.921Z,0
2023-05-22T19:40:42.094Z,0
2023-05-22T19:43:08.145Z,0
2023-05-22T19:45:34.208Z,0
2023-05-22T19:48:00.293Z,0
2023-05-22T19:50:26.394Z,0
2023-05-22T19:52:52.487Z,0
2023-05-22T19:55:18.566Z,0
2023-05-22T19:57:44.742Z,0
2023-05-22T20:00:10.799Z,0
2023-05-22T20:02:35.862Z,0
2023-05-22T20:05:01.948Z,0
2023-05-22T20:07:28.120Z,0
2023-05-22T20:09:54.149Z,0
2023-05-22T20:12:20.266Z,0
2023-05-22T20:14:46.352Z,0
2023-05-22T20:17:12.446Z,0
2023-05-22T20:19:38.550Z,0
2023-05-22T20:22:04.624Z,0
2023-05-22T20:24:30.797Z,0
2023-05-22T20:26:56.821Z,0
2023-05-22T20:29:22.904Z,0
2023-05-22T20:31:49.021Z,0
2023-05-22T20:34:15.104Z,0
2023-05-22T20:36:41.249Z,0
2023-05-22T20:39:07.296Z,0
2023-05-22T20:41:33.379Z,0
2023-05-22T20:43:59.510Z,0
2023-05-22T20:46:25.575Z,0
2023-05-22T20:48:50.688Z,0
2023-05-22T20:51:16.765Z,0
2023-05-22T20:53:42.868Z,0
2023-05-22T20:56:08.950Z,0
2023-05-22T20:58:35.072Z,0
2023-05-22T21:01:01.136Z,0
2023-05-22T21:03:27.288Z,0
2023-05-22T21:05:53.362Z,0
2023-05-22T21:08:19.438Z,0
2023-05-22T21:10:45.546Z,0
2023-05-22T21:13:11.724Z,0
2023-05-22T21:15:37.718Z,0
2023-05-22T21:18:03.804Z,0
2023-05-22T21:20:28.948Z,0
2023-05-22T21:22:55.017Z,0
2023-05-22T21:25:21.107Z,0
2023-05-22T21:27:47.237Z,0
2023-05-22T21:30:13.327Z,0
2023-05-22T21:32:39.394Z,0
2023-05-22T21:35:05.483Z,0
2023-05-22T21:37:31.613Z,0
2023-05-22T21:39:57.677Z,0
2023-05-22T21:42:23.767Z,0
2023-05-22T21:44:49.859Z,0
2023-05-22T21:47:15.969Z,0
2023-05-22T21:49:42.055Z,0
2023-05-22T21:52:07.169Z,0
2023-05-22T21:54:33.251Z,0
2023-05-22T21:56:59.367Z,0
2023-05-22T21:59:25.453Z,0
2023-05-22T22:01:51.572Z,0
2023-05-22T22:04:17.642Z,0
2023-05-22T22:06:43.755Z,0
2023-05-22T22:09:09.837Z,0
2023-05-22T22:14:02.028Z,0
2023-05-22T22:16:28.114Z,0
2023-05-22T22:18:54.213Z,0
2023-05-22T22:21:20.324Z,0
2023-05-22T22:23:45.424Z,0
2023-05-22T22:26:11.502Z,0
2023-05-22T22:28:37.631Z,0
2023-05-22T22:31:03.743Z,0
2023-05-22T22:33:29.852Z,0
2023-05-22T22:35:55.906Z,0
2023-05-22T22:38:22.033Z,0
2023-05-22T22:40:48.128Z,0
2023-05-22T22:43:14.166Z,0
2023-05-22T22:45:40.290Z,0
2023-05-22T22:48:06.395Z,0
2023-05-22T22:50:32.486Z,0
2023-05-22T22:52:58.552Z,0
2023-05-22T22:55:23.677Z,0
2023-05-22T22:57:49.756Z,0
2023-05-22T23:00:15.863Z,0
2023-05-22T23:02:42.048Z,0
2023-05-22T23:05:08.055Z,0
2023-05-22T23:07:34.143Z,0
2023-05-22T23:10:00.246Z,0
2023-05-22T23:12:26.334Z,0
2023-05-22T23:14:52.433Z,0
2023-05-22T23:17:18.517Z,0
2023-05-22T23:19:44.620Z,0
2023-05-22T23:22:10.701Z,0
2023-05-22T23:24:36.810Z,0
2023-05-22T23:27:01.913Z,0
2023-05-22T23:29:28.021Z,0
2023-05-22T23:31:54.096Z,0
2023-05-22T23:34:20.212Z,0
2023-05-22T23:36:46.289Z,0
2023-05-22T23:39:12.405Z,0
2023-05-22T23:41:38.473Z,0
2023-05-22T23:44:04.597Z,0
2023-05-22T23:46:30.689Z,0
2023-05-22T23:48:56.763Z,0
2023-05-22T23:51:22.866Z,0
2023-05-22T23:53:48.973Z,0
2023-05-22T23:56:15.057Z,0
2023-05-22T23:58:40.160Z,0
